Latest Weather Observations for Scoresby

IDV60801

Issued at 7:35 pm EST Sunday 21 September 2014 (issued every 30 minutes, with the page automatically refreshed every 10 minutes)

About weather observations | Map of weather stations | Latest weather observations for VIC | Other Formats
Station Details ID: 086104 Name: SCORESBY RESEARCH INSTITUTE Lat: -37.87 Lon: 145.26 Height: 80.0 m
Data from the previous 72 hours. | See also: Recent months at Scoresby
Date/Time
EST
Temp
°C
App
Temp
°C
Dew
Point
Rel
Hum
%
Delta-T
°C
Wind Press
QNH
hPa
Press
MSL
hPa
Rain
since 9 am
mm
Dir
 
Spd
km/h
Gust
km/h
Spd
kts
Gust
kts
21/07:30pm 10.6 8.6 6.2 74 2.1 SSE 6 11 3 6 - - 0.2
21/07:00pm 11.4 9.2 6.3 71 2.4 SSE 7 13 4 7 - - 0.2
21/06:30pm 12.2 10.3 6.5 68 2.7 SSE 6 11 3 6 - - 0.2
21/06:00pm 12.9 10.4 6.7 66 3.0 SW 9 17 5 9 - - 0.2
21/05:30pm 13.7 10.5 6.8 63 3.3 SSW 13 20 7 11 - - 0.2
21/05:00pm 14.8 12.1 7.4 61 3.7 SSW 11 19 6 10 - - 0.2
21/04:30pm 15.7 13.2 6.7 55 4.4 SSE 9 17 5 9 - - 0.2
21/04:00pm 16.3 14.3 7.0 54 4.6 S 7 15 4 8 - - 0.2
21/03:30pm 16.1 14.0 6.8 54 4.6 SSE 7 15 4 8 - - 0.2
21/03:00pm 15.9 13.3 6.3 53 4.7 SSE 9 15 5 8 - - 0.2
21/02:30pm 15.8 13.7 6.5 54 4.6 SE 7 15 4 8 - - 0.2
21/02:00pm 16.2 14.6 8.2 59 4.1 S 6 11 3 6 - - 0.2
21/01:30pm 15.4 13.3 6.7 56 4.3 SE 7 13 4 7 - - 0.2
21/01:00pm 15.2 13.1 6.7 57 4.2 SE 7 15 4 8 - - 0.2
21/12:30pm 14.6 12.5 5.9 56 4.2 SE 6 13 3 7 - - 0.2
21/12:00pm 14.6 11.7 6.7 59 3.9 SSE 11 19 6 10 - - 0.2
21/11:30am 14.1 11.3 5.2 55 4.2 SE 9 17 5 9 - - 0.0
21/11:00am 14.1 11.1 6.0 58 3.9 SSE 11 17 6 9 - - 0.0
21/10:30am 13.1 9.8 4.8 57 3.8 SSE 11 15 6 8 - - 0.0
21/10:00am 13.2 10.6 5.9 61 3.5 S 9 19 5 10 - - 0.0
21/09:30am 12.7 10.3 5.4 61 3.4 SE 7 13 4 7 - - 0.0
21/09:00am 12.3 9.9 5.2 62 3.3 SSE 7 15 4 8 - - 0.0
21/08:30am 11.4 10.8 7.5 77 1.9 CALM 0 7 0 4 - - 0.0
21/08:00am 10.0 9.6 8.4 90 0.8 CALM 0 0 0 0 - - 0.0
21/07:30am 9.1 8.6 8.0 93 0.5 CALM 0 4 0 2 - - 0.0
21/07:00am 8.5 7.9 7.6 94 0.4 ENE 0 0 0 0 - - 0.0
21/06:30am 7.9 7.2 7.0 94 0.4 ENE 0 0 0 0 - - 0.0
21/06:00am 7.6 6.8 6.7 94 0.4 ENE 0 0 0 0 - - 0.0
21/05:30am 7.5 6.7 6.4 93 0.5 CALM 0 0 0 0 - - 0.0
21/05:00am 8.2 7.5 7.0 92 0.6 CALM 0 0 0 0 - - 0.0
21/04:30am 8.6 7.6 7.5 93 0.5 SW 2 4 1 2 - - 0.0
21/04:00am 8.4 7.8 7.5 94 0.4 CALM 0 0 0 0 - - 0.0
21/03:30am 8.1 7.5 7.2 94 0.4 CALM 0 0 0 0 - - 0.0
21/03:00am 7.9 7.2 7.1 95 0.4 CALM 0 0 0 0 - - 0.0
21/02:30am 7.6 6.9 6.9 95 0.3 CALM 0 0 0 0 - - 0.0
21/02:00am 7.3 6.5 6.6 95 0.3 CALM 0 0 0 0 - - 0.0
21/01:30am 7.1 6.3 6.4 95 0.3 CALM 0 0 0 0 - - 0.0
21/01:00am 6.9 6.0 6.2 95 0.3 CALM 0 0 0 0 - - 0.0
21/12:30am 6.5 5.5 5.8 95 0.3 CALM 0 0 0 0 - - 0.0
21/12:00am 6.1 5.1 5.4 95 0.3 CALM 0 0 0 0 - - 0.0
 
Date/Time
EST
Temp
°C
App
Temp
°C
Dew
Point
Rel
Hum
%
Delta-T
°C
Wind Press
QNH
hPa
Press
MSL
hPa
Rain
since 9 am
mm
Dir
 
Spd
km/h
Gust
km/h
Spd
kts
Gust
kts
20/11:30pm 5.8 4.7 4.9 94 0.4 CALM 0 0 0 0 - - 0.0
20/11:00pm 6.4 5.4 5.4 93 0.4 CALM 0 0 0 0 - - 0.0
20/10:30pm 6.0 4.8 4.5 90 0.6 CALM 0 0 0 0 - - 0.0
20/10:00pm 7.8 6.2 6.3 90 0.7 SSW 4 6 2 3 - - 0.0
20/09:30pm 8.4 7.5 6.2 86 1.0 CALM 0 0 0 0 - - 0.0
20/09:00pm 10.1 9.5 7.2 82 1.4 CALM 0 0 0 0 - - 0.0
20/08:30pm 10.9 10.3 7.2 78 1.8 CALM 0 6 0 3 - - 0.0
20/08:00pm 11.3 9.9 7.2 76 2.0 SSE 4 7 2 4 - - 0.0
20/07:30pm 11.5 9.8 7.4 76 2.0 SE 6 9 3 5 - - 0.0
20/07:00pm 11.8 10.5 7.7 76 2.0 SSE 4 11 2 6 - - 0.0
20/06:30pm 11.8 9.9 7.7 76 2.0 S 7 13 4 7 - - 0.0
20/06:00pm 12.0 9.4 7.7 75 2.1 SSE 11 19 6 10 - - 0.0
20/05:30pm 12.7 10.4 7.6 71 2.5 S 9 20 5 11 - - 0.0
20/05:00pm 13.0 10.6 6.8 66 3.0 S 9 15 5 8 - - 0.0
20/04:30pm 13.2 10.5 7.2 67 2.9 S 11 19 6 10 - - 0.0
20/04:00pm 13.0 11.9 8.3 73 2.3 S 4 13 2 7 - - 0.0
20/03:30pm 12.9 10.6 7.6 70 2.6 SSW 9 17 5 9 - - 0.0
20/03:00pm 13.2 10.9 7.6 69 2.8 SW 9 17 5 9 - - 0.0
20/02:30pm 13.2 11.0 7.9 70 2.6 SW 9 17 5 9 - - 0.0
20/02:00pm 12.8 10.3 8.1 73 2.3 SW 11 17 6 9 - - 0.0
20/01:30pm 12.7 10.5 7.8 72 2.4 SW 9 17 5 9 - - 0.0
20/01:00pm 12.6 10.0 7.7 72 2.4 SW 11 19 6 10 - - 0.0
20/12:30pm 13.2 11.4 7.9 70 2.6 SSW 7 11 4 6 - - 0.0
20/12:00pm 12.6 10.7 7.5 71 2.5 SW 7 13 4 7 - - 0.0
20/11:30am 12.6 9.6 7.7 72 2.4 SW 13 20 7 11 - - 0.0
20/11:00am 13.0 11.2 7.9 71 2.5 SSW 7 15 4 8 - - 0.0
20/10:30am 12.2 9.9 7.5 73 2.3 SE 9 17 5 9 - - 0.0
20/10:00am 12.5 10.5 8.6 77 1.9 S 9 17 5 9 - - 0.0
20/09:30am 11.2 9.7 8.6 84 1.3 SSE 6 13 3 7 - - 0.0
20/09:00am 11.1 9.4 8.3 83 1.4 SSW 7 13 4 7 - - 0.2
20/08:30am 11.1 9.5 8.7 85 1.2 SSW 7 13 4 7 - - 0.2
20/08:00am 10.2 9.8 8.1 87 1.0 CALM 0 4 0 2 - - 0.2
20/07:30am 9.2 8.8 8.3 94 0.4 CALM 0 0 0 0 - - 0.2
20/07:00am 8.2 7.6 7.3 94 0.4 CALM 0 0 0 0 - - 0.2
20/06:30am 7.0 6.1 5.9 93 0.5 CALM 0 0 0 0 - - 0.2
20/06:00am 6.9 5.9 5.7 92 0.5 CALM 0 4 0 2 - - 0.2
20/05:30am 8.0 7.2 6.5 90 0.7 CALM 0 0 0 0 - - 0.2
20/05:00am 8.5 7.8 7.1 91 0.7 CALM 0 0 0 0 - - 0.2
20/04:30am 8.0 7.2 6.5 90 0.7 CALM 0 0 0 0 - - 0.2
20/04:00am 8.1 7.2 6.1 87 0.9 CALM 0 0 0 0 - - 0.2
20/03:30am 8.8 8.0 6.6 86 1.0 CALM 0 0 0 0 - - 0.2
20/03:00am 9.3 8.5 6.6 83 1.3 CALM 0 0 0 0 - - 0.2
20/02:30am 9.4 8.7 6.8 84 1.2 CALM 0 0 0 0 - - 0.2
20/02:00am 9.4 8.7 6.8 84 1.2 CALM 0 0 0 0 - - 0.2
20/01:30am 9.5 8.7 6.6 82 1.4 CALM 0 0 0 0 - - 0.2
20/01:00am 9.5 8.6 6.2 80 1.5 CALM 0 0 0 0 - - 0.2
20/12:30am 9.0 8.1 5.9 81 1.4 CALM 0 0 0 0 - - 0.2
20/12:00am 10.0 9.1 6.2 77 1.8 CALM 0 0 0 0 - - 0.2
 
Date/Time
EST
Temp
°C
App
Temp
°C
Dew
Point
Rel
Hum
%
Delta-T
°C
Wind Press
QNH
hPa
Press
MSL
hPa
Rain
since 9 am
mm
Dir
 
Spd
km/h
Gust
km/h
Spd
kts
Gust
kts
19/11:30pm 9.8 8.9 6.2 78 1.7 CALM 0 0 0 0 - - 0.2
19/11:00pm 10.1 9.3 6.3 77 1.8 CALM 0 0 0 0 - - 0.2
19/10:30pm 9.8 8.9 6.2 78 1.7 CALM 0 0 0 0 - - 0.2
19/10:00pm 10.4 9.5 6.0 74 2.0 CALM 0 0 0 0 - - 0.2
19/09:30pm 11.0 9.4 6.2 72 2.3 S 4 11 2 6 - - 0.2
19/09:00pm 11.4 9.7 6.1 70 2.5 S 4 11 2 6 - - 0.2
19/08:30pm 11.4 9.3 5.9 69 2.6 SSW 6 11 3 6 - - 0.2
19/08:00pm 11.7 9.5 6.0 68 2.7 SSW 7 15 4 8 - - 0.2
19/07:30pm 11.5 9.5 7.0 74 2.2 SSW 7 17 4 9 - - 0.2
19/07:00pm 11.2 9.3 6.9 75 2.1 SSW 6 9 3 5 - - 0.2
19/06:30pm 11.6 9.1 6.7 72 2.3 SSW 9 17 5 9 - - 0.2
19/06:00pm 12.0 9.1 6.7 70 2.5 SW 11 19 6 10 - - 0.2
19/05:30pm 12.7 10.3 7.2 69 2.7 SSW 9 19 5 10 - - 0.2
19/05:00pm 13.0 10.1 6.6 65 3.1 SSW 11 19 6 10 - - 0.2
19/04:30pm 13.5 10.2 6.4 62 3.4 SW 13 20 7 11 - - 0.2
19/04:00pm 14.5 11.2 6.3 58 4.0 SW 13 24 7 13 - - 0.2
19/03:30pm 14.1 10.2 5.5 56 4.1 SW 15 24 8 13 - - 0.2
19/03:00pm 13.6 9.8 5.7 59 3.7 SW 15 30 8 16 - - 0.2
19/02:30pm 14.5 10.8 6.1 57 4.0 SSW 15 24 8 13 - - 0.2
19/02:00pm 13.7 11.3 6.8 63 3.3 SW 9 17 5 9 - - 0.2
19/01:30pm 12.0 10.0 6.9 71 2.4 SW 7 17 4 9 - - 0.2
19/01:00pm 11.9 8.7 7.0 72 2.4 SW 13 20 7 11 - - 0.2
19/12:30pm 12.7 9.5 6.7 67 2.9 SW 13 22 7 12 - - 0.2
19/12:00pm 12.5 9.2 6.3 66 2.9 SW 13 22 7 12 - - 0.2
19/11:30am 12.5 10.2 7.6 72 2.4 WSW 9 13 5 7 - - 0.2
19/11:00am 11.2 7.8 7.5 78 1.8 WSW 15 24 8 13 - - 0.2
19/10:30am 12.1 9.6 6.6 69 2.6 WSW 9 13 5 7 - - 0.0
19/10:00am 11.8 9.6 7.7 76 2.0 WSW 9 15 5 8 - - 0.0
19/09:30am 11.5 10.4 6.8 73 2.2 ESE 2 7 1 4 - - 0.0
19/09:00am 10.2 8.6 6.5 78 1.7 NNE 4 6 2 3 - - 1.0
19/08:30am 8.4 6.8 6.4 87 0.9 NNE 4 7 2 4 - - 1.0
19/08:00am 8.0 6.3 6.1 88 0.9 NNE 4 7 2 4 - - 1.0
19/07:30am 7.4 5.4 6.2 92 0.5 NNE 6 9 3 5 - - 1.0
19/07:00am 7.1 5.0 6.0 93 0.5 NNE 6 9 3 5 - - 1.0
19/06:30am 6.9 4.8 6.0 94 0.4 NE 6 7 3 4 - - 1.0
19/06:00am 6.9 5.2 6.0 94 0.4 NNE 4 6 2 3 - - 1.0
19/05:30am 7.0 6.1 6.1 94 0.4 CALM 0 0 0 0 - - 1.0
19/05:00am 7.1 5.4 6.0 93 0.5 NE 4 7 2 4 - - 1.0
19/04:30am 7.2 6.3 6.1 93 0.5 CALM 0 4 0 2 - - 0.8
19/04:00am 7.1 6.2 6.0 93 0.5 CALM 0 0 0 0 - - 0.4
19/03:30am 7.0 6.1 6.1 94 0.4 CALM 0 0 0 0 - - 0.4
19/03:00am 6.3 5.2 5.3 93 0.4 CALM 0 0 0 0 - - 0.4
19/02:30am 6.4 5.3 5.2 92 0.5 CALM 0 0 0 0 - - 0.4
19/02:00am 6.8 5.8 5.7 93 0.5 CALM 0 0 0 0 - - 0.4
19/01:30am 6.2 5.1 5.2 93 0.4 CALM 0 2 0 1 - - 0.4
19/01:00am 6.3 5.2 5.1 92 0.5 CALM 0 0 0 0 - - 0.4
19/12:30am 7.0 6.0 5.8 92 0.5 CALM 0 0 0 0 - - 0.4
19/12:00am 7.7 6.9 6.3 91 0.6 CALM 0 0 0 0 - - 0.4
 
Date/Time
EST
Temp
°C
App
Temp
°C
Dew
Point
Rel
Hum
%
Delta-T
°C
Wind Press
QNH
hPa
Press
MSL
hPa
Rain
since 9 am
mm
Dir
 
Spd
km/h
Gust
km/h
Spd
kts
Gust
kts
18/11:30pm 7.4 6.4 5.7 89 0.8 CALM 0 0 0 0 - - 0.4
18/11:00pm 7.8 6.9 5.9 88 0.9 CALM 0 0 0 0 - - 0.4
18/10:30pm 7.6 6.7 6.1 90 0.7 CALM 0 0 0 0 - - 0.2
18/10:00pm 6.9 5.8 4.9 87 0.9 CALM 0 0 0 0 - - 0.2
18/09:30pm 7.0 5.8 4.5 84 1.1 CALM 0 0 0 0 - - 0.2
18/09:00pm 7.2 5.9 4.0 80 1.4 CALM 0 0 0 0 - - 0.2
18/08:30pm 8.7 7.4 4.1 73 2.0 CALM 0 0 0 0 - - 0.2
18/08:00pm 9.4 7.7 4.0 69 2.4 S 2 6 1 3 - - 0.2

Other Formats:

Comma delimited format used in spreadsheet applications
http://www.bom.gov.au/fwo/IDV60801/IDV60801.95867.axf

JavaScript Object Notation format (JSON) in row-major order
http://www.bom.gov.au/fwo/IDV60801/IDV60801.95867.json